createdAt,value
2023-11-22T00:01:51.139Z,6.70
2023-11-22T00:04:19.906Z,6.50
2023-11-22T00:09:24.029Z,6.20
2023-11-22T00:11:51.992Z,6.10
2023-11-22T00:14:22.875Z,6.20
2023-11-22T00:19:26.191Z,6.10
2023-11-22T00:21:54.269Z,5.90
2023-11-22T00:29:23.194Z,5.80
2023-11-22T00:34:21.294Z,6.00
2023-11-22T00:36:51.978Z,5.80
2023-11-22T00:41:48.643Z,5.60
2023-11-22T00:44:17.093Z,5.70
2023-11-22T00:46:47.514Z,6.00
2023-11-22T00:49:16.914Z,5.60
2023-11-22T00:51:46.293Z,5.60
2023-11-22T00:59:11.884Z,5.20
2023-11-22T01:04:09.983Z,5.50
2023-11-22T01:11:38.939Z,5.00
2023-11-22T01:14:10.596Z,5.20
2023-11-22T01:16:39.129Z,5.40
2023-11-22T01:21:41.728Z,5.20
2023-11-22T01:24:12.264Z,5.00
2023-11-22T01:29:08.823Z,5.40
2023-11-22T01:31:37.110Z,4.80
2023-11-22T01:36:46.713Z,5.00
2023-11-22T01:39:16.829Z,5.30
2023-11-22T01:41:47.738Z,4.90
2023-11-22T01:44:15.666Z,4.40
2023-11-22T01:46:44.730Z,4.90
2023-11-22T01:49:13.130Z,5.10
2023-11-22T01:51:44.218Z,5.00
2023-11-22T01:54:13.837Z,5.00
2023-11-22T01:56:42.716Z,4.90
2023-11-22T02:04:11.065Z,4.50
2023-11-22T02:06:39.223Z,4.80
2023-11-22T02:09:14.530Z,4.40
2023-11-22T02:11:43.403Z,4.70
2023-11-22T02:14:11.438Z,4.80
2023-11-22T02:16:42.570Z,4.50
2023-11-22T02:19:16.959Z,4.40
2023-11-22T02:24:18.375Z,4.40
2023-11-22T02:26:48.383Z,4.30
2023-11-22T02:29:17.475Z,4.20
2023-11-22T02:31:46.262Z,4.30
2023-11-22T02:36:51.739Z,4.50
2023-11-22T02:39:34.847Z,4.10
2023-11-22T02:42:06.074Z,4.10
2023-11-22T02:49:31.798Z,4.30
2023-11-22T02:54:32.448Z,4.00
2023-11-22T02:59:31.055Z,4.00
2023-11-22T03:04:29.649Z,4.00
2023-11-22T03:06:58.268Z,4.00
2023-11-22T03:11:57.324Z,3.80
2023-11-22T03:19:23.030Z,3.90
2023-11-22T03:24:19.410Z,3.80
2023-11-22T03:29:19.729Z,3.60
2023-11-22T03:36:45.889Z,3.40
2023-11-22T03:39:15.715Z,3.40
2023-11-22T03:44:15.720Z,3.90
2023-11-22T03:46:47.505Z,3.50
2023-11-22T03:49:15.917Z,3.70
2023-11-22T03:51:45.266Z,3.50
2023-11-22T03:54:13.821Z,3.50
2023-11-22T03:59:10.706Z,3.80
2023-11-22T04:04:10.633Z,3.40
2023-11-22T04:09:14.812Z,3.40
2023-11-22T04:14:12.945Z,3.60
2023-11-22T04:19:13.516Z,3.30
2023-11-22T04:21:41.813Z,3.20
2023-11-22T04:24:10.658Z,3.50
2023-11-22T04:36:35.876Z,3.20
2023-11-22T04:39:05.795Z,3.40
2023-11-22T04:44:08.881Z,3.10
2023-11-22T04:49:08.763Z,3.10
2023-11-22T04:51:38.802Z,3.00
2023-11-22T04:54:07.065Z,3.20
2023-11-22T04:56:35.646Z,3.20
2023-11-22T04:59:08.442Z,3.20
2023-11-22T05:04:08.490Z,2.90
2023-11-22T05:06:38.770Z,3.10
2023-11-22T05:09:10.881Z,3.10
2023-11-22T05:11:39.572Z,2.90
2023-11-22T05:14:07.800Z,3.10
2023-11-22T05:16:42.302Z,3.50
2023-11-22T05:21:40.398Z,2.90
2023-11-22T05:24:10.248Z,3.20
2023-11-22T05:26:39.168Z,2.60
2023-11-22T05:29:07.709Z,3.20
2023-11-22T05:36:32.673Z,3.10
2023-11-22T05:39:04.723Z,3.30
2023-11-22T05:41:32.840Z,2.60
2023-11-22T05:44:01.254Z,2.50
2023-11-22T05:46:30.388Z,3.00
2023-11-22T05:51:27.861Z,2.70
2023-11-22T05:56:27.135Z,3.00
2023-11-22T05:58:57.880Z,2.30
2023-11-22T06:03:56.116Z,2.70
2023-11-22T06:06:24.582Z,2.90
2023-11-22T06:11:22.929Z,2.30
2023-11-22T06:13:58.676Z,2.60
2023-11-22T06:16:27.004Z,2.80
2023-11-22T06:18:55.560Z,2.80
2023-11-22T06:23:57.302Z,2.60
2023-11-22T06:26:25.469Z,2.70
2023-11-22T06:28:56.900Z,2.50
2023-11-22T06:33:54.703Z,2.50
2023-11-22T06:36:22.700Z,2.60
2023-11-22T06:38:51.225Z,2.30
2023-11-22T06:41:19.764Z,2.50
2023-11-22T06:43:48.774Z,2.10
2023-11-22T06:46:18.643Z,2.60
2023-11-22T06:51:19.440Z,2.50
2023-11-22T06:53:47.758Z,2.50
2023-11-22T06:56:17.420Z,2.30
2023-11-22T07:01:17.765Z,2.40
2023-11-22T07:03:47.685Z,2.30
2023-11-22T07:06:19.420Z,2.50
2023-11-22T07:08:48.358Z,2.20
2023-11-22T07:11:30.613Z,2.30
2023-11-22T07:16:29.953Z,2.30
2023-11-22T07:19:04.726Z,1.90
2023-11-22T07:24:01.448Z,2.20
2023-11-22T07:26:29.649Z,2.20
2023-11-22T07:31:30.301Z,2.30
2023-11-22T07:34:02.901Z,2.50
2023-11-22T07:36:34.637Z,2.30
2023-11-22T07:41:32.652Z,1.90
2023-11-22T07:49:01.794Z,2.40
2023-11-22T07:54:00.251Z,2.30
2023-11-22T07:56:30.245Z,2.50
2023-11-22T07:58:58.625Z,2.50
2023-11-22T08:01:32.894Z,2.40
2023-11-22T08:04:03.868Z,2.30
2023-11-22T08:06:32.198Z,2.10
2023-11-22T08:09:02.442Z,2.60
2023-11-22T08:11:30.835Z,2.20
2023-11-22T08:14:00.998Z,2.10
2023-11-22T08:18:57.791Z,2.30
2023-11-22T08:21:27.395Z,2.20
2023-11-22T08:23:55.616Z,2.20
2023-11-22T08:26:26.895Z,2.40
2023-11-22T08:28:56.541Z,2.50
2023-11-22T08:31:25.836Z,2.60
2023-11-22T08:33:54.928Z,2.70
2023-11-22T08:36:23.712Z,2.60
2023-11-22T08:38:54.094Z,2.40
2023-11-22T08:41:24.869Z,2.00
2023-11-22T08:43:52.965Z,2.40
2023-11-22T08:46:20.975Z,2.50
2023-11-22T08:48:49.404Z,2.40
2023-11-22T08:51:17.654Z,2.70
2023-11-22T08:53:47.199Z,3.30
2023-11-22T08:56:17.126Z,2.60
2023-11-22T08:58:45.962Z,2.80
2023-11-22T09:01:15.859Z,3.00
2023-11-22T09:03:46.129Z,3.10
2023-11-22T09:06:14.046Z,2.70
2023-11-22T09:08:42.035Z,2.80
2023-11-22T09:11:11.509Z,3.10
2023-11-22T09:13:41.099Z,3.50
2023-11-22T09:16:09.961Z,3.20
2023-11-22T09:18:39.545Z,3.50
2023-11-22T09:21:09.780Z,3.80
2023-11-22T09:23:38.230Z,3.30
2023-11-22T09:26:06.601Z,3.40
2023-11-22T09:28:36.057Z,3.80
2023-11-22T09:31:08.128Z,3.60
2023-11-22T09:33:36.441Z,4.20
2023-11-22T09:36:08.073Z,3.50
2023-11-22T09:38:38.832Z,3.30
2023-11-22T09:41:08.986Z,3.80
2023-11-22T09:43:36.978Z,3.50
2023-11-22T09:46:07.388Z,3.90
2023-11-22T09:48:39.213Z,3.70
2023-11-22T09:51:18.837Z,3.90
2023-11-22T09:54:01.657Z,4.30
2023-11-22T09:56:31.051Z,4.10
2023-11-22T09:59:02.748Z,4.40
2023-11-22T10:01:34.599Z,4.40
2023-11-22T10:04:03.922Z,4.60
2023-11-22T10:06:34.800Z,4.40
2023-11-22T10:09:08.453Z,4.40
2023-11-22T10:11:40.624Z,3.90
2023-11-22T10:14:11.053Z,4.10
2023-11-22T10:16:40.662Z,4.20
2023-11-22T10:19:10.905Z,4.00
2023-11-22T10:21:41.112Z,4.10
2023-11-22T10:24:10.959Z,4.00
2023-11-22T10:29:09.471Z,4.20
2023-11-22T10:31:38.430Z,3.90
2023-11-22T10:34:09.127Z,4.00
2023-11-22T10:36:38.020Z,4.50
2023-11-22T10:39:10.514Z,4.40
2023-11-22T10:41:40.610Z,4.60
2023-11-22T10:44:10.250Z,4.60
2023-11-22T10:46:41.526Z,4.50
2023-11-22T10:49:13.395Z,4.40
2023-11-22T10:51:43.192Z,4.40
2023-11-22T10:54:11.640Z,4.40
2023-11-22T10:56:44.010Z,4.40
2023-11-22T10:59:16.620Z,4.40
2023-11-22T11:01:51.200Z,4.50
2023-11-22T11:04:27.300Z,4.70
2023-11-22T11:06:58.282Z,4.60
2023-11-22T11:09:33.243Z,4.50
2023-11-22T11:12:07.692Z,4.70
2023-11-22T11:14:37.681Z,4.80
2023-11-22T11:17:07.750Z,4.60
2023-11-22T11:19:37.708Z,5.10
2023-11-22T11:22:06.534Z,4.80
2023-11-22T11:24:41.381Z,4.80
2023-11-22T11:27:12.320Z,4.60
2023-11-22T11:29:43.520Z,4.70
2023-11-22T11:32:14.847Z,4.60
2023-11-22T11:34:51.669Z,4.60
2023-11-22T11:37:21.443Z,4.70
2023-11-22T11:39:49.643Z,4.60
2023-11-22T11:42:21.253Z,4.60
2023-11-22T11:45:04.510Z,4.60
2023-11-22T11:47:34.025Z,4.80
2023-11-22T11:50:04.125Z,4.50
2023-11-22T11:52:36.162Z,4.60
2023-11-22T11:55:06.528Z,4.60
2023-11-22T11:57:34.724Z,4.60
2023-11-22T12:00:04.788Z,4.90
2023-11-22T12:02:32.883Z,4.80
2023-11-22T12:05:00.755Z,4.70
2023-11-22T12:07:30.058Z,4.80
2023-11-22T12:09:58.639Z,4.50
2023-11-22T12:12:26.609Z,4.70
2023-11-22T12:14:56.904Z,4.90
2023-11-22T12:17:25.485Z,4.80
2023-11-22T12:19:53.645Z,4.80
2023-11-22T12:22:22.781Z,4.90
2023-11-22T12:24:52.370Z,4.90
2023-11-22T12:27:20.295Z,5.10
2023-11-22T12:29:49.085Z,5.20
2023-11-22T12:32:18.662Z,5.30
2023-11-22T12:34:46.900Z,5.40
2023-11-22T12:37:16.522Z,5.40
2023-11-22T12:39:44.721Z,5.30
2023-11-22T12:42:14.112Z,5.40
2023-11-22T12:44:53.548Z,5.30
2023-11-22T12:47:36.988Z,5.40
2023-11-22T12:50:05.766Z,5.40
2023-11-22T12:52:34.124Z,5.30
2023-11-22T12:55:02.460Z,5.40
2023-11-22T12:57:32.213Z,5.30
2023-11-22T13:00:00.503Z,5.30
2023-11-22T13:02:29.980Z,5.30
2023-11-22T13:05:00.581Z,5.40
2023-11-22T13:07:30.380Z,5.60
2023-11-22T13:09:58.494Z,5.80
2023-11-22T13:12:26.628Z,5.70
2023-11-22T13:14:56.236Z,5.50
2023-11-22T13:17:24.523Z,5.60
2023-11-22T13:19:52.590Z,5.30
2023-11-22T13:22:20.580Z,5.40
2023-11-22T13:24:49.090Z,5.40
2023-11-22T13:27:17.390Z,5.50
2023-11-22T13:29:45.713Z,5.40
2023-11-22T13:32:15.228Z,5.50
2023-11-22T13:34:44.034Z,5.50
2023-11-22T13:37:11.889Z,5.50
2023-11-22T13:39:41.186Z,5.40
2023-11-22T13:42:09.072Z,5.50
2023-11-22T13:44:37.142Z,5.50
2023-11-22T13:47:08.938Z,5.40
2023-11-22T13:49:38.577Z,5.40
2023-11-22T13:52:07.116Z,5.30
2023-11-22T13:54:39.103Z,5.20
2023-11-22T13:57:07.511Z,5.20
2023-11-22T13:59:38.335Z,5.10
2023-11-22T14:02:06.917Z,5.00
2023-11-22T14:04:36.430Z,5.10
2023-11-22T14:07:06.399Z,5.30
2023-11-22T14:09:37.605Z,4.90
2023-11-22T14:12:06.083Z,5.00
2023-11-22T14:14:34.302Z,4.90
2023-11-22T14:17:02.267Z,5.00
2023-11-22T14:19:32.688Z,4.90
2023-11-22T14:22:00.849Z,5.00
2023-11-22T14:24:31.814Z,4.90
2023-11-22T14:27:02.686Z,4.90
2023-11-22T14:29:30.627Z,4.90
2023-11-22T14:31:58.823Z,5.00
2023-11-22T14:34:27.012Z,5.10
2023-11-22T14:36:55.779Z,5.00
2023-11-22T14:39:23.798Z,4.90
2023-11-22T14:41:53.434Z,4.90
2023-11-22T14:44:21.387Z,4.80
2023-11-22T14:46:50.449Z,4.90
2023-11-22T14:49:18.358Z,4.80
2023-11-22T14:51:46.874Z,4.50
2023-11-22T14:54:14.756Z,4.60
2023-11-22T14:56:42.967Z,4.60
2023-11-22T14:59:14.518Z,4.60
2023-11-22T15:01:43.180Z,4.50
2023-11-22T15:04:11.872Z,4.80
2023-11-22T15:06:39.804Z,4.40
2023-11-22T15:09:11.181Z,4.60
2023-11-22T15:11:39.525Z,4.60
2023-11-22T15:14:07.485Z,4.50
2023-11-22T15:16:37.101Z,4.50
2023-11-22T15:19:06.978Z,4.40
2023-11-22T15:24:05.632Z,4.30
2023-11-22T15:26:34.516Z,4.40
2023-11-22T15:29:03.027Z,4.20
2023-11-22T15:31:31.853Z,4.10
2023-11-22T15:34:03.937Z,4.10
2023-11-22T15:36:33.556Z,4.10
2023-11-22T15:39:02.003Z,4.40
2023-11-22T15:41:33.742Z,4.10
2023-11-22T15:44:01.747Z,4.00
2023-11-22T15:46:30.112Z,3.80
2023-11-22T15:48:58.196Z,3.80
2023-11-22T15:51:27.565Z,3.70
2023-11-22T15:53:55.622Z,3.70
2023-11-22T15:56:27.907Z,3.70
2023-11-22T15:58:59.823Z,3.30
2023-11-22T16:01:28.217Z,4.20
2023-11-22T16:04:00.615Z,4.00
2023-11-22T16:06:30.401Z,3.40
2023-11-22T16:08:58.416Z,3.40
2023-11-22T16:11:26.535Z,3.40
2023-11-22T16:13:54.683Z,3.40
2023-11-22T16:16:23.428Z,3.40
2023-11-22T16:18:51.663Z,3.10
2023-11-22T16:21:19.875Z,3.30
2023-11-22T16:23:49.372Z,3.60
2023-11-22T16:26:19.008Z,3.10
2023-11-22T16:28:47.619Z,2.80
2023-11-22T16:31:16.458Z,3.10
2023-11-22T16:33:44.472Z,3.30
2023-11-22T16:36:12.624Z,3.10
2023-11-22T16:38:41.056Z,3.10
2023-11-22T16:41:12.963Z,3.10
2023-11-22T16:43:42.501Z,3.00
2023-11-22T17:01:41.752Z,2.70
2023-11-22T17:04:09.142Z,2.80
2023-11-22T17:06:36.428Z,2.90
2023-11-22T17:09:05.115Z,2.70
2023-11-22T17:11:31.924Z,4.10
2023-11-22T17:13:59.263Z,2.90
2023-11-22T17:16:29.800Z,2.80
2023-11-22T17:18:59.646Z,2.70
2023-11-22T17:21:29.453Z,2.20
2023-11-22T17:23:57.750Z,2.70
2023-11-22T17:26:25.778Z,2.60
2023-11-22T17:28:54.003Z,2.60
2023-11-22T17:31:24.188Z,2.60
2023-11-22T17:33:53.174Z,2.50
2023-11-22T17:36:23.123Z,2.50
2023-11-22T17:38:51.390Z,2.70
2023-11-22T17:41:20.637Z,2.40
2023-11-22T17:43:49.080Z,2.40
2023-11-22T17:46:17.110Z,2.30
2023-11-22T17:48:45.583Z,2.00
2023-11-22T17:51:14.583Z,1.90
2023-11-22T17:53:44.899Z,2.20
2023-11-22T17:56:12.904Z,2.20
2023-11-22T17:58:41.137Z,2.10
2023-11-22T18:01:09.365Z,2.50
2023-11-22T18:03:37.731Z,2.00
2023-11-22T18:06:06.078Z,2.00
2023-11-22T18:08:34.091Z,2.00
2023-11-22T18:11:03.814Z,2.00
2023-11-22T18:13:31.867Z,2.00
2023-11-22T18:16:00.283Z,1.90
2023-11-22T18:18:28.454Z,1.90
2023-11-22T18:20:56.513Z,2.00
2023-11-22T18:23:25.810Z,2.00
2023-11-22T18:28:25.349Z,1.40
2023-11-22T18:30:55.076Z,2.00
2023-11-22T18:33:23.167Z,2.00
2023-11-22T18:35:51.630Z,2.10
2023-11-22T18:38:22.490Z,2.10
2023-11-22T18:40:50.850Z,2.10
2023-11-22T18:43:19.093Z,2.10
2023-11-22T18:45:48.544Z,2.10
2023-11-22T18:48:17.828Z,2.10
2023-11-22T18:50:46.830Z,2.10
2023-11-22T18:53:14.865Z,2.40
2023-11-22T18:55:43.414Z,2.10
2023-11-22T18:58:11.911Z,2.00
2023-11-22T19:03:10.332Z,2.00
2023-11-22T19:05:38.480Z,2.00
2023-11-22T19:08:08.351Z,2.00
2023-11-22T19:10:36.670Z,2.00
2023-11-22T19:13:05.329Z,1.90
2023-11-22T19:15:43.903Z,0.70
2023-11-22T19:18:14.069Z,1.60
2023-11-22T19:20:43.330Z,1.90
2023-11-22T19:23:12.765Z,1.90
2023-11-22T19:25:41.474Z,2.00
2023-11-22T19:28:10.272Z,2.00
2023-11-22T19:30:39.248Z,1.70
2023-11-22T19:33:07.881Z,1.80
2023-11-22T19:35:38.423Z,1.70
2023-11-22T19:38:09.382Z,1.70
2023-11-22T19:43:06.826Z,1.80
2023-11-22T19:45:34.988Z,1.70
2023-11-22T19:50:32.012Z,2.00
2023-11-22T19:53:01.670Z,1.80
2023-11-22T19:55:30.402Z,1.80
2023-11-22T19:58:00.532Z,1.80
2023-11-22T20:00:29.330Z,1.60
2023-11-22T20:02:59.979Z,1.90
2023-11-22T20:05:28.267Z,2.00
2023-11-22T20:10:26.986Z,1.80
2023-11-22T20:12:55.584Z,2.00
2023-11-22T20:15:23.758Z,1.80
2023-11-22T20:22:53.137Z,1.80
2023-11-22T20:25:21.182Z,1.70
2023-11-22T20:27:50.715Z,1.30
2023-11-22T20:30:19.542Z,1.40
2023-11-22T20:32:47.610Z,1.50
2023-11-22T20:35:15.647Z,1.40
2023-11-22T20:37:43.672Z,0.90
2023-11-22T20:40:12.886Z,1.30
2023-11-22T20:42:41.085Z,1.30
2023-11-22T20:45:12.409Z,1.30
2023-11-22T20:47:41.546Z,1.10
2023-11-22T20:50:10.516Z,1.10
2023-11-22T20:52:38.811Z,0.80
2023-11-22T20:55:09.933Z,1.10
2023-11-22T20:57:39.311Z,0.70
2023-11-22T21:00:12.600Z,0.80
2023-11-22T21:02:41.859Z,0.80
2023-11-22T21:05:13.149Z,0.70
2023-11-22T21:07:41.120Z,1.50
2023-11-22T21:10:10.461Z,0.90
2023-11-22T21:12:38.545Z,1.20
2023-11-22T21:15:07.267Z,1.10
2023-11-22T21:17:42.014Z,0.70
2023-11-22T21:20:16.591Z,1.00
2023-11-22T21:22:44.600Z,0.90
2023-11-22T21:25:12.747Z,1.30
2023-11-22T21:27:43.032Z,0.70
2023-11-22T21:30:12.304Z,0.50
2023-11-22T21:32:42.277Z,0.50
2023-11-22T21:35:11.146Z,0.70
2023-11-22T21:37:39.331Z,0.70
2023-11-22T21:40:11.559Z,0.70
2023-11-22T21:42:40.231Z,0.70
2023-11-22T21:45:12.269Z,0.60
2023-11-22T21:47:42.786Z,0.40
2023-11-22T21:50:14.140Z,0.80
2023-11-22T21:52:43.720Z,0.60
2023-11-22T21:55:12.778Z,0.10
2023-11-22T22:00:15.777Z,0.70
2023-11-22T22:02:45.470Z,0.70
2023-11-22T22:10:11.580Z,1.10
2023-11-22T22:20:08.853Z,0.80
2023-11-22T22:25:06.066Z,1.50
2023-11-22T22:37:30.576Z,0.80
2023-11-22T22:42:28.040Z,1.10
2023-11-22T22:54:51.369Z,1.20
2023-11-22T23:02:17.756Z,1.50
2023-11-22T23:12:13.530Z,1.70
2023-11-22T23:14:41.568Z,1.60
2023-11-22T23:24:37.587Z,1.80
2023-11-22T23:27:07.317Z,2.00
2023-11-22T23:29:40.397Z,2.20
2023-11-22T23:32:11.470Z,1.80
2023-11-22T23:37:07.974Z,2.30
2023-11-22T23:39:35.996Z,1.90
2023-11-22T23:42:08.400Z,1.50
2023-11-22T23:44:37.805Z,1.70
2023-11-22T23:54:33.687Z,1.90
2023-11-22T23:57:01.818Z,1.90
